This is the latest recevied weather packets stored in our database for station/object NZ3C. If no packets are shown the sender has not sent any weather packets the latest 1 day(s).
| Time | Temp. | Humidity | Pressure | Rain* | Wind** | Luminosity | Snow |
|---|---|---|---|---|---|---|---|
| 1778031224 | 20° C | 67% | 1017.4 hPa | 0 mm | - | 0 W/m² | - |
| 1778030920 | 20° C | 67% | 1017.4 hPa | 0 mm | - | 0 W/m² | - |
| 1778030011 | 20° C | 67% | 1017.4 hPa | 0 mm | - | 0 W/m² | - |
| 1778029709 | 20.56° C | 66% | 1017.1 hPa | 0 mm | - | 0 W/m² | - |
| 1778029103 | 20.56° C | 66% | 1017.3 hPa | 0 mm | - | 0 W/m² | - |
| 1778028496 | 21.11° C | 65% | 1016.9 hPa | 0 mm | - | 0 W/m² | - |
| 1778028194 | 21.11° C | 64% | 1017.1 hPa | 0 mm | - | 0 W/m² | - |
| 1778026979 | 21.67° C | 62% | 1016.5 hPa | 0 mm | - | 0 W/m² | - |
| 1778022740 | 24.44° C | 48% | 1016.1 hPa | 0 mm | - | 26 W/m² | - |
| 1778022134 | 24.44° C | 48% | 1016.1 hPa | 0 mm | - | 27 W/m² | - |
| 1778020921 | 25.56° C | 46% | 1016.1 hPa | 0 mm | - | 70 W/m² | - |
| 1778020010 | 25.56° C | 45% | 1016.4 hPa | 0 mm | - | 113 W/m² | - |
| 1778019100 | 26.11° C | 44% | 1016.3 hPa | 0 mm | - | 73 W/m² | - |
| 1778016983 | 26.67° C | 43% | 1016.2 hPa | 0 mm | - | 91 W/m² | - |
| 1778013650 | 27.78° C | 40% | 1016 hPa | 0 mm | - | 553 W/m² | - |
| 1778011528 | 27.22° C | 40% | 1016.7 hPa | 0 mm | - | 568 W/m² | - |
| 1778003948 | 27.78° C | 40% | 1018.1 hPa | 0 mm | - | 938 W/m² | - |
| 1778002431 | 27.22° C | 42% | 1018.3 hPa | 0 mm | - | 901 W/m² | - |
| 1778002128 | 26.67° C | 43% | 1018.6 hPa | 0 mm | - | 941 W/m² | - |
| 1778001525 | 27.22° C | 43% | 1018.3 hPa | 0 mm | - | 942 W/m² | - |
| 1778000311 | 27.22° C | 44% | 1018.5 hPa | 0 mm | - | 874 W/m² | - |
| 1777999098 | 26.67° C | 43% | 1018.8 hPa | 0 mm | - | 877 W/m² | - |
| 1777997282 | 25.56° C | 44% | 1019.3 hPa | 0 mm | - | 852 W/m² | - |
| 1777996676 | 25.56° C | 46% | 1019 hPa | 0 mm | - | 844 W/m² | - |
| 1777995765 | 25.56° C | 45% | 1019.2 hPa | 0 mm | - | 824 W/m² | - |
* Rain latest hour (hover to see other rain measurements)
** Current wind speed in m/s (hover to see current wind gust speed)